Norrland — C4KF2 — position and weather

sailwx.info

Track history (hours):
 
Tides and Currents Weather Stations Pressure Air Temp Water Temp Dewpoint Dewpoint Depression Visibility Wind Speed Wind Dir Waves Ship Positions

Norrland

Last reported at 2017-Sep-22 01:52 UTC. Time now 2017-Sep-23 18:35 UTC.
Position N 59°32' E 026°33'.

Length 118 m; draft 7.3 m.

Type: Cargo ship. MMSI: 212521000.

Date/timePositionNaut miles runAvg speedWind from/ knotsBaromVisibWave heightAir tempDewpointWater temp
2017-Sep-22 01:52N 59°32' E 026°33'0 0.0
2017-Sep-22 00:45N 59°32' E 026°33'0 0.0
2017-Sep-22 00:09N 59°32' E 026°33'0 0.0
2017-Sep-22 00:00N 59°32' E 026°33'0 0.0
2017-Sep-21 20:07N 59°32' E 026°33'0 0.0
2017-Sep-21 19:47N 59°32' E 026°33'0 0.1
2017-Sep-21 19:26N 59°32' E 026°33'2 5.1
2017-Sep-21 19:00N 59°34' E 026°31'4 8.6
2017-Sep-21 18:31N 59°36' E 026°24'5 9.5
2017-Sep-21 18:00N 59°38' E 026°15'39 9.7
2017-Sep-21 14:02N 59°44' E 024°60'010.4
2017-Sep-21 14:01N 59°44' E 024°59'510.2
2017-Sep-21 13:30N 59°44' E 024°49'510.2
2017-Sep-21 13:00N 59°44' E 024°39'510.4
2017-Sep-21 12:30N 59°43' E 024°29'510.6
2017-Sep-21 12:00N 59°41' E 024°19'1310.8
2017-Sep-21 10:46N 59°37' E 023°54'310.7
2017-Sep-21 10:30N 59°36' E 023°49'510.6
2017-Sep-21 10:00N 59°34' E 023°39'610.8
2017-Sep-21 09:25N 59°32' E 023°27'510.9
2017-Sep-21 08:58N 59°31' E 023°18'30511.0
2017-Sep-20 05:08N 55°58' E 016°28'110.9
2017-Sep-20 05:00N 55°57' E 016°26'610.9
2017-Sep-20 04:28N 55°54' E 016°17'510.8
2017-Sep-20 04:00N 55°52' E 016°09'511.0
2017-Sep-20 03:30N 55°49' E 016°00'510.9
2017-Sep-20 03:00N 55°47' E 015°52'510.8
2017-Sep-20 02:30N 55°44' E 015°43'510.9
2017-Sep-20 02:00N 55°41' E 015°35'611.0
2017-Sep-20 01:30N 55°38' E 015°27'510.8
2017-Sep-20 01:00N 55°36' E 015°18'610.9
2017-Sep-20 00:29N 55°33' E 015°10'610.9
2017-Sep-19 23:58N 55°30' E 015°01'610.8
2017-Sep-19 23:28N 55°28' E 014°52'510.9
2017-Sep-19 22:58N 55°25' E 014°44'510.8
2017-Sep-19 22:30N 55°23' E 014°36'610.8
2017-Sep-19 21:59N 55°19' E 014°30'510.9
2017-Sep-19 21:31N 55°14' E 014°24'610.5
2017-Sep-19 20:58N 55°11' E 014°16'511.2
2017-Sep-19 20:29N 55°11' E 014°06'4011.0
2017-Sep-19 16:51N 55°14' E 012°57'410.8
2017-Sep-19 16:30N 55°15' E 012°51'510.9
2017-Sep-19 16:00N 55°17' E 012°42'5 9.2
2017-Sep-19 15:30N 55°21' E 012°38'510.7
2017-Sep-19 15:00N 55°27' E 012°40'510.4
2017-Sep-19 14:30N 55°32' E 012°42'4 8.3
2017-Sep-19 14:00N 55°36' E 012°42'5 9.2
2017-Sep-19 13:30N 55°40' E 012°41'611.1
2017-Sep-19 13:01N 55°46' E 012°41'510.6
2017-Sep-19 12:30N 55°51' E 012°41'510.6
2017-Sep-19 12:00N 55°56' E 012°39'510.8
2017-Sep-19 11:30N 56°02' E 012°39'510.3
2017-Sep-19 11:00N 56°06' E 012°33'611.1
2017-Sep-19 10:30N 56°09' E 012°25'611.6
2017-Sep-19 10:00N 56°12' E 012°17'6510.7
2017-Sep-19 03:54N 57°13' E 011°33'411.0
2017-Sep-19 03:29N 57°17' E 011°30'510.7
2017-Sep-19 02:59N 57°22' E 011°26'510.4
2017-Sep-19 02:30N 57°27' E 011°23'510.8
2017-Sep-19 02:00N 57°31' E 011°16'611.2
2017-Sep-19 01:31N 57°35' E 011°09'611.0
2017-Sep-19 01:00N 57°38' E 011°01'610.9
2017-Sep-19 00:27N 57°43' E 010°53'510.9
2017-Sep-19 00:00N 57°46' E 010°46'510.6
2017-Sep-18 23:30N 57°47' E 010°37'611.7
2017-Sep-18 23:01N 57°47' E 010°26'711.9
2017-Sep-18 22:24N 57°47' E 010°13'5911.6
2017-Sep-18 17:17N 57°51' E 008°22'310.8
2017-Sep-18 17:00N 57°51' E 008°16'510.5
2017-Sep-18 16:30N 57°52' E 008°06'510.3
2017-Sep-18 16:00N 57°52' E 007°57'5 9.5
2017-Sep-18 15:30N 57°52' E 007°48'5 9.1
2017-Sep-18 15:00N 57°52' E 007°39'5 9.5
2017-Sep-18 14:30N 57°53' E 007°30'5 9.8
2017-Sep-18 14:00N 57°53' E 007°21'5 9.8
2017-Sep-18 13:30N 57°53' E 007°12'5 9.7
2017-Sep-18 13:00N 57°54' E 007°03'5 9.5
2017-Sep-18 12:30N 57°54' E 006°54'5 9.2
2017-Sep-18 12:00N 57°57' E 006°46'5 9.5
2017-Sep-18 11:30N 57°59' E 006°39'5 9.5
2017-Sep-18 11:00N 58°02' E 006°32'5 9.1
2017-Sep-18 10:30N 58°05' E 006°25'4 9.1
2017-Sep-18 10:00N 58°07' E 006°18'4 8.9
2017-Sep-18 09:30N 58°09' E 006°10'5 9.4
2017-Sep-18 09:00N 58°12' E 006°03'510.1
2017-Sep-18 08:30N 58°15' E 005°55'5 9.9
2017-Sep-18 08:00N 58°18' E 005°47'510.9
2017-Sep-18 07:30N 58°21' E 005°39'5 9.6
2017-Sep-18 07:00N 58°24' E 005°32'5 9.5
2017-Sep-18 06:30N 58°27' E 005°24'510.5
2017-Sep-18 06:00N 58°30' E 005°16'5 9.9
2017-Sep-18 05:30N 58°35' E 005°15'510.0
2017-Sep-18 05:00N 58°40' E 005°16'5 9.7
2017-Sep-18 04:30N 58°44' E 005°21'5 9.5
2017-Sep-18 04:00N 58°48' E 005°25'5 9.8
2017-Sep-18 03:30N 58°52' E 005°31'5 9.8
2017-Sep-18 03:00N 58°57' E 005°33'510.6
2017-Sep-18 02:31N 59°02' E 005°33'5 9.5
2017-Sep-18 02:00N 59°02' E 005°42'510.1
2017-Sep-18 01:30N 59°03' E 005°51'3 5.4
2017-Sep-18 01:00N 59°05' E 005°54'0 0.0
2017-Sep-18 00:30N 59°05' E 005°54'0 0.0
2017-Sep-18 00:00N 59°05' E 005°54'0 0.0
2017-Sep-17 23:30N 59°05' E 005°54'0 0.0
2017-Sep-17 23:00N 59°05' E 005°54'0 0.0
2017-Sep-17 22:30N 59°05' E 005°54'0 0.0
2017-Sep-17 22:00N 59°05' E 005°54'0 0.0
2017-Sep-17 21:30N 59°05' E 005°54'0 0.0
2017-Sep-17 21:00N 59°05' E 005°54'0 0.0
2017-Sep-17 20:30N 59°05' E 005°54'0 0.0
2017-Sep-17 20:00N 59°05' E 005°54'0 0.0
2017-Sep-17 19:30N 59°05' E 005°54'0 0.0
2017-Sep-17 19:00N 59°05' E 005°54'0 0.1
2017-Sep-17 18:29N 59°05' E 005°54'0 0.0
2017-Sep-17 18:01N 59°05' E 005°54'0 0.0
2017-Sep-17 17:30N 59°05' E 005°54'0 0.0
2017-Sep-17 17:00N 59°05' E 005°54'0 0.0
2017-Sep-17 16:30N 59°05' E 005°54'0 0.0
2017-Sep-17 16:00N 59°05' E 005°54'0 0.0
2017-Sep-17 15:30N 59°05' E 005°54'0 0.0
2017-Sep-17 15:00N 59°05' E 005°54'0 0.0
2017-Sep-17 14:30N 59°05' E 005°54'0 0.0
2017-Sep-17 14:00N 59°05' E 005°54'0 0.0
2017-Sep-17 13:30N 59°05' E 005°54'1 2.1
2017-Sep-17 13:01N 59°05' E 005°52'5 9.8
2017-Sep-17 12:31N 59°02' E 005°45'510.6
2017-Sep-17 12:01N 59°02' E 005°35'611.3
2017-Sep-17 11:31N 58°57' E 005°33'611.8
2017-Sep-17 11:01N 58°51' E 005°30'4 8.0
2017-Sep-17 10:31N 58°50' E 005°23'1 1.6
2017-Sep-17 09:59N 58°50' E 005°22'0 0.1
2017-Sep-17 09:29N 58°50' E 005°22'0 0.1
2017-Sep-17 08:59N 58°50' E 005°22'0 0.0
2017-Sep-17 08:29N 58°50' E 005°22'0 0.1
2017-Sep-17 07:59N 58°50' E 005°22'0 0.1
2017-Sep-17 07:29N 58°50' E 005°22'0 0.0
2017-Sep-17 06:59N 58°50' E 005°22'0 0.1
2017-Sep-17 06:29N 58°50' E 005°22'0 0.8
2017-Sep-17 06:01N 58°49' E 005°21'5 9.5
2017-Sep-17 05:30N 58°46' E 005°15'611.6
2017-Sep-17 05:00N 58°41' E 005°09'611.3
2017-Sep-17 04:30N 58°36' E 005°04'611.1
2017-Sep-17 04:00N 58°31' E 004°60'510.9
2017-Sep-17 03:30N 58°26' E 004°55'611.1
2017-Sep-17 03:01N 58°21' E 004°51'611.0
2017-Sep-17 02:30N 58°16' E 004°47'710.7
2017-Sep-17 01:50N 58°09' E 004°41'310.4
2017-Sep-17 01:31N 58°06' E 004°38'313 9.7
2017-Sep-15 17:16N 53°37' W 000°06'413.7
2017-Sep-15 17:00N 53°39' W 000°11'612.3
2017-Sep-15 16:30N 53°44' W 000°16'0 0.5
2017-Sep-15 15:59N 53°45' W 000°16'0 0.2
2017-Sep-15 15:29N 53°45' W 000°16'0 0.4
2017-Sep-15 14:59N 53°44' W 000°16'0 0.0
2017-Sep-15 14:29N 53°44' W 000°16'0 0.0
2017-Sep-15 13:59N 53°44' W 000°16'0 0.0
2017-Sep-15 13:26N 53°44' W 000°16'0 0.0
2017-Sep-15 12:59N 53°44' W 000°16'0 0.0
2017-Sep-15 12:29N 53°44' W 000°16'0 0.0
2017-Sep-15 11:59N 53°44' W 000°16'0 0.0
2017-Sep-15 11:29N 53°44' W 000°16'0 0.0
2017-Sep-15 10:59N 53°44' W 000°16'0 0.0
2017-Sep-15 10:29N 53°44' W 000°16'0 0.0
2017-Sep-15 09:59N 53°44' W 000°16'0 0.0
2017-Sep-15 09:29N 53°44' W 000°16'0 0.0
2017-Sep-15 08:59N 53°44' W 000°16'0 0.0
2017-Sep-15 08:29N 53°44' W 000°16'0 0.0
2017-Sep-15 07:59N 53°44' W 000°16'0 0.0
2017-Sep-15 07:29N 53°44' W 000°16'0 0.0
2017-Sep-15 06:59N 53°44' W 000°16'0 0.0
2017-Sep-15 06:29N 53°44' W 000°16'0 0.0
2017-Sep-15 05:59N 53°44' W 000°16'0 0.0
2017-Sep-15 05:29N 53°44' W 000°16'0 0.0
2017-Sep-15 04:59N 53°44' W 000°16'0 0.0
2017-Sep-15 04:29N 53°44' W 000°16'0 0.0
2017-Sep-15 03:59N 53°44' W 000°16'0 0.0
2017-Sep-15 03:29N 53°44' W 000°16'0 0.0
2017-Sep-15 02:59N 53°44' W 000°16'0 0.0
2017-Sep-15 02:29N 53°44' W 000°16'0 0.0
2017-Sep-15 01:59N 53°44' W 000°16'0 0.0
2017-Sep-15 01:29N 53°44' W 000°16'0 0.0
2017-Sep-15 00:59N 53°44' W 000°16'0 0.0
2017-Sep-15 00:26N 53°44' W 000°16'0 0.0
2017-Sep-14 23:59N 53°44' W 000°16'0 0.0
2017-Sep-14 23:29N 53°44' W 000°16'0 0.0
2017-Sep-14 22:59N 53°44' W 000°16'0 0.0
2017-Sep-14 22:29N 53°44' W 000°16'0 0.0
2017-Sep-14 21:59N 53°44' W 000°16'0 0.0
2017-Sep-14 21:29N 53°44' W 000°16'0 0.0
2017-Sep-14 20:59N 53°44' W 000°16'0 0.0
2017-Sep-14 20:26N 53°44' W 000°16'0 0.0
2017-Sep-14 19:56N 53°44' W 000°16'0 0.1
2017-Sep-14 19:29N 53°44' W 000°16'0 0.7
2017-Sep-14 18:59N 53°45' W 000°16'0 0.0
2017-Sep-14 18:29N 53°45' W 000°16'0 0.0
2017-Sep-14 17:59N 53°45' W 000°16'0 0.0
2017-Sep-14 17:23N 53°45' W 000°16'0 0.0
2017-Sep-14 16:59N 53°45' W 000°16'0 0.0
2017-Sep-14 16:29N 53°45' W 000°16'0 0.0
2017-Sep-14 15:59N 53°45' W 000°16'0 0.0
2017-Sep-14 15:29N 53°45' W 000°16'0 0.0
2017-Sep-14 14:59N 53°45' W 000°16'0 0.0
2017-Sep-14 14:29N 53°45' W 000°16'0 0.0
2017-Sep-14 13:59N 53°45' W 000°16'0 0.0
2017-Sep-14 13:29N 53°45' W 000°16'0 0.0
2017-Sep-14 12:59N 53°45' W 000°16'0 0.0
2017-Sep-14 12:29N 53°45' W 000°16'0 0.0
2017-Sep-14 11:59N 53°45' W 000°16'0 0.0
2017-Sep-14 11:29N 53°45' W 000°16'0 0.0
2017-Sep-14 10:59N 53°45' W 000°16'0 0.0
2017-Sep-14 10:29N 53°45' W 000°16'0 0.0
2017-Sep-14 09:59N 53°45' W 000°16'0 0.0
2017-Sep-14 09:29N 53°45' W 000°16'0 0.0
2017-Sep-14 08:59N 53°45' W 000°16'0 0.0
2017-Sep-14 08:26N 53°45' W 000°16'0 0.0
2017-Sep-14 07:56N 53°45' W 000°16'0 0.0
2017-Sep-14 07:29N 53°45' W 000°16'0 0.0
2017-Sep-14 06:59N 53°45' W 000°16'0 0.0
2017-Sep-14 06:29N 53°45' W 000°16'0 0.0
2017-Sep-14 05:59N 53°45' W 000°16'0 0.0
2017-Sep-14 05:29N 53°45' W 000°16'0 0.0
2017-Sep-14 04:59N 53°45' W 000°16'0 0.0
2017-Sep-14 04:29N 53°45' W 000°16'0 0.0
2017-Sep-14 03:59N 53°45' W 000°16'0 0.0
2017-Sep-14 03:23N 53°45' W 000°16'0 0.0
2017-Sep-14 02:59N 53°45' W 000°16'0 0.0
2017-Sep-14 02:29N 53°45' W 000°16'0 0.0
2017-Sep-14 01:59N 53°45' W 000°16'0 0.0
2017-Sep-14 01:29N 53°45' W 000°16'0 0.0
2017-Sep-14 00:59N 53°45' W 000°16'0 0.0
2017-Sep-14 00:26N 53°45' W 000°16'0 0.0
2017-Sep-13 23:59N 53°45' W 000°16'0 0.0
2017-Sep-13 23:29N 53°45' W 000°16'0 0.0
2017-Sep-13 22:59N 53°45' W 000°16'0 0.0
2017-Sep-13 22:29N 53°45' W 000°16'0 0.0
2017-Sep-13 21:59N 53°45' W 000°16'0 0.0
2017-Sep-13 21:29N 53°45' W 000°16'0 0.0
2017-Sep-13 20:59N 53°45' W 000°16'0 0.0
2017-Sep-13 20:29N 53°45' W 000°16'0 0.0
2017-Sep-13 19:56N 53°45' W 000°16'0 0.0
2017-Sep-13 19:29N 53°45' W 000°16'0 0.0
2017-Sep-13 18:53N 53°45' W 000°16'0 0.0
2017-Sep-13 18:29N 53°45' W 000°16'0 0.0
2017-Sep-13 17:56N 53°45' W 000°16'0 0.0
2017-Sep-13 17:26N 53°45' W 000°16'0 0.0
2017-Sep-13 16:59N 53°45' W 000°16'0 0.0
2017-Sep-13 16:29N 53°45' W 000°16'0 0.0
2017-Sep-13 15:59N 53°45' W 000°16'0 0.0
2017-Sep-13 15:29N 53°45' W 000°16'0 0.0
2017-Sep-13 14:59N 53°45' W 000°16'0 0.0
2017-Sep-13 14:26N 53°45' W 000°16'0 0.0
2017-Sep-13 13:59N 53°45' W 000°16'0 0.0
2017-Sep-13 13:29N 53°45' W 000°16'0 0.0
2017-Sep-13 12:59N 53°45' W 000°16'0 0.0
2017-Sep-13 12:29N 53°45' W 000°16'0 0.0
2017-Sep-13 11:59N 53°45' W 000°16'0 0.0
2017-Sep-13 11:29N 53°45' W 000°16'0 0.0
2017-Sep-13 10:59N 53°45' W 000°16'0 0.0
2017-Sep-13 10:29N 53°45' W 000°16'0 0.0
2017-Sep-13 09:59N 53°45' W 000°16'0 0.0
2017-Sep-13 09:30N 53°45' W 000°16'0 0.4
2017-Sep-13 09:00N 53°44' W 000°16'0 0.3
2017-Sep-13 08:30N 53°44' W 000°17'2 3.4
2017-Sep-13 08:00N 53°43' W 000°15'510.4
2017-Sep-13 07:30N 53°38' W 000°11'510.9
2017-Sep-13 07:00N 53°37' W 000°02'510.3
2017-Sep-13 06:30N 53°34' E 000°05'4 7.3
2017-Sep-13 05:58N 53°33' E 000°12'4 7.1
2017-Sep-13 05:27N 53°34' E 000°18'  
Track history (hours):
 
Tides and Currents Weather Stations Pressure Air Temp Water Temp Dewpoint Dewpoint Depression Visibility Wind Speed Wind Dir Waves Ship Positions

Norrland

Last reported at 2017-Sep-22 01:52 UTC. Time now 2017-Sep-23 18:35 UTC.
Position N 59°32' E 026°33'.

Length 118 m; draft 7.3 m.

Type: Cargo ship. MMSI: 212521000.

Date/timePositionNaut miles runAvg speedWind from/ knotsBaromVisibWave heightAir tempDewpointWater temp
2017-Sep-22 01:52N 59°32' E 026°33'0 0.0
2017-Sep-22 00:45N 59°32' E 026°33'0 0.0
2017-Sep-22 00:09N 59°32' E 026°33'0 0.0
2017-Sep-22 00:00N 59°32' E 026°33'0 0.0
2017-Sep-21 20:07N 59°32' E 026°33'0 0.0
2017-Sep-21 19:47N 59°32' E 026°33'0 0.1
2017-Sep-21 19:26N 59°32' E 026°33'2 5.1
2017-Sep-21 19:00N 59°34' E 026°31'4 8.6
2017-Sep-21 18:31N 59°36' E 026°24'5 9.5
2017-Sep-21 18:00N 59°38' E 026°15'39 9.7
2017-Sep-21 14:02N 59°44' E 024°60'010.4
2017-Sep-21 14:01N 59°44' E 024°59'510.2
2017-Sep-21 13:30N 59°44' E 024°49'510.2
2017-Sep-21 13:00N 59°44' E 024°39'510.4
2017-Sep-21 12:30N 59°43' E 024°29'510.6
2017-Sep-21 12:00N 59°41' E 024°19'1310.8
2017-Sep-21 10:46N 59°37' E 023°54'310.7
2017-Sep-21 10:30N 59°36' E 023°49'510.6
2017-Sep-21 10:00N 59°34' E 023°39'610.8
2017-Sep-21 09:25N 59°32' E 023°27'510.9
2017-Sep-21 08:58N 59°31' E 023°18'30511.0
2017-Sep-20 05:08N 55°58' E 016°28'110.9
2017-Sep-20 05:00N 55°57' E 016°26'610.9
2017-Sep-20 04:28N 55°54' E 016°17'510.8
2017-Sep-20 04:00N 55°52' E 016°09'511.0
2017-Sep-20 03:30N 55°49' E 016°00'510.9
2017-Sep-20 03:00N 55°47' E 015°52'510.8
2017-Sep-20 02:30N 55°44' E 015°43'510.9
2017-Sep-20 02:00N 55°41' E 015°35'611.0
2017-Sep-20 01:30N 55°38' E 015°27'510.8
2017-Sep-20 01:00N 55°36' E 015°18'610.9
2017-Sep-20 00:29N 55°33' E 015°10'610.9
2017-Sep-19 23:58N 55°30' E 015°01'610.8
2017-Sep-19 23:28N 55°28' E 014°52'510.9
2017-Sep-19 22:58N 55°25' E 014°44'510.8
2017-Sep-19 22:30N 55°23' E 014°36'610.8
2017-Sep-19 21:59N 55°19' E 014°30'510.9
2017-Sep-19 21:31N 55°14' E 014°24'610.5
2017-Sep-19 20:58N 55°11' E 014°16'511.2
2017-Sep-19 20:29N 55°11' E 014°06'4011.0
2017-Sep-19 16:51N 55°14' E 012°57'410.8
2017-Sep-19 16:30N 55°15' E 012°51'510.9
2017-Sep-19 16:00N 55°17' E 012°42'5 9.2
2017-Sep-19 15:30N 55°21' E 012°38'510.7
2017-Sep-19 15:00N 55°27' E 012°40'510.4
2017-Sep-19 14:30N 55°32' E 012°42'4 8.3
2017-Sep-19 14:00N 55°36' E 012°42'5 9.2
2017-Sep-19 13:30N 55°40' E 012°41'611.1
2017-Sep-19 13:01N 55°46' E 012°41'510.6
2017-Sep-19 12:30N 55°51' E 012°41'510.6
2017-Sep-19 12:00N 55°56' E 012°39'510.8
2017-Sep-19 11:30N 56°02' E 012°39'510.3
2017-Sep-19 11:00N 56°06' E 012°33'611.1
2017-Sep-19 10:30N 56°09' E 012°25'611.6
2017-Sep-19 10:00N 56°12' E 012°17'6510.7
2017-Sep-19 03:54N 57°13' E 011°33'411.0
2017-Sep-19 03:29N 57°17' E 011°30'510.7
2017-Sep-19 02:59N 57°22' E 011°26'510.4
2017-Sep-19 02:30N 57°27' E 011°23'510.8
2017-Sep-19 02:00N 57°31' E 011°16'611.2
2017-Sep-19 01:31N 57°35' E 011°09'611.0
2017-Sep-19 01:00N 57°38' E 011°01'610.9
2017-Sep-19 00:27N 57°43' E 010°53'510.9
2017-Sep-19 00:00N 57°46' E 010°46'510.6
2017-Sep-18 23:30N 57°47' E 010°37'611.7
2017-Sep-18 23:01N 57°47' E 010°26'711.9
2017-Sep-18 22:24N 57°47' E 010°13'5911.6
2017-Sep-18 17:17N 57°51' E 008°22'310.8
2017-Sep-18 17:00N 57°51' E 008°16'510.5
2017-Sep-18 16:30N 57°52' E 008°06'510.3
2017-Sep-18 16:00N 57°52' E 007°57'5 9.5
2017-Sep-18 15:30N 57°52' E 007°48'5 9.1
2017-Sep-18 15:00N 57°52' E 007°39'5 9.5
2017-Sep-18 14:30N 57°53' E 007°30'5 9.8
2017-Sep-18 14:00N 57°53' E 007°21'5 9.8
2017-Sep-18 13:30N 57°53' E 007°12'5 9.7
2017-Sep-18 13:00N 57°54' E 007°03'5 9.5
2017-Sep-18 12:30N 57°54' E 006°54'5 9.2
2017-Sep-18 12:00N 57°57' E 006°46'5 9.5
2017-Sep-18 11:30N 57°59' E 006°39'5 9.5
2017-Sep-18 11:00N 58°02' E 006°32'5 9.1
2017-Sep-18 10:30N 58°05' E 006°25'4 9.1
2017-Sep-18 10:00N 58°07' E 006°18'4 8.9
2017-Sep-18 09:30N 58°09' E 006°10'5 9.4
2017-Sep-18 09:00N 58°12' E 006°03'510.1
2017-Sep-18 08:30N 58°15' E 005°55'5 9.9
2017-Sep-18 08:00N 58°18' E 005°47'510.9
2017-Sep-18 07:30N 58°21' E 005°39'5 9.6
2017-Sep-18 07:00N 58°24' E 005°32'5 9.5
2017-Sep-18 06:30N 58°27' E 005°24'510.5
2017-Sep-18 06:00N 58°30' E 005°16'5 9.9
2017-Sep-18 05:30N 58°35' E 005°15'510.0
2017-Sep-18 05:00N 58°40' E 005°16'5 9.7
2017-Sep-18 04:30N 58°44' E 005°21'5 9.5
2017-Sep-18 04:00N 58°48' E 005°25'5 9.8
2017-Sep-18 03:30N 58°52' E 005°31'5 9.8
2017-Sep-18 03:00N 58°57' E 005°33'510.6
2017-Sep-18 02:31N 59°02' E 005°33'5 9.5
2017-Sep-18 02:00N 59°02' E 005°42'510.1
2017-Sep-18 01:30N 59°03' E 005°51'3 5.4
2017-Sep-18 01:00N 59°05' E 005°54'0 0.0
2017-Sep-18 00:30N 59°05' E 005°54'0 0.0
2017-Sep-18 00:00N 59°05' E 005°54'0 0.0
2017-Sep-17 23:30N 59°05' E 005°54'0 0.0
2017-Sep-17 23:00N 59°05' E 005°54'0 0.0
2017-Sep-17 22:30N 59°05' E 005°54'0 0.0
2017-Sep-17 22:00N 59°05' E 005°54'0 0.0
2017-Sep-17 21:30N 59°05' E 005°54'0 0.0
2017-Sep-17 21:00N 59°05' E 005°54'0 0.0
2017-Sep-17 20:30N 59°05' E 005°54'0 0.0
2017-Sep-17 20:00N 59°05' E 005°54'0 0.0
2017-Sep-17 19:30N 59°05' E 005°54'0 0.0
2017-Sep-17 19:00N 59°05' E 005°54'0 0.1
2017-Sep-17 18:29N 59°05' E 005°54'0 0.0
2017-Sep-17 18:01N 59°05' E 005°54'0 0.0
2017-Sep-17 17:30N 59°05' E 005°54'0 0.0
2017-Sep-17 17:00N 59°05' E 005°54'0 0.0
2017-Sep-17 16:30N 59°05' E 005°54'0 0.0
2017-Sep-17 16:00N 59°05' E 005°54'0 0.0
2017-Sep-17 15:30N 59°05' E 005°54'0 0.0
2017-Sep-17 15:00N 59°05' E 005°54'0 0.0
2017-Sep-17 14:30N 59°05' E 005°54'0 0.0
2017-Sep-17 14:00N 59°05' E 005°54'0 0.0
2017-Sep-17 13:30N 59°05' E 005°54'1 2.1
2017-Sep-17 13:01N 59°05' E 005°52'5 9.8
2017-Sep-17 12:31N 59°02' E 005°45'510.6
2017-Sep-17 12:01N 59°02' E 005°35'611.3
2017-Sep-17 11:31N 58°57' E 005°33'611.8
2017-Sep-17 11:01N 58°51' E 005°30'4 8.0
2017-Sep-17 10:31N 58°50' E 005°23'1 1.6
2017-Sep-17 09:59N 58°50' E 005°22'0 0.1
2017-Sep-17 09:29N 58°50' E 005°22'0 0.1
2017-Sep-17 08:59N 58°50' E 005°22'0 0.0
2017-Sep-17 08:29N 58°50' E 005°22'0 0.1
2017-Sep-17 07:59N 58°50' E 005°22'0 0.1
2017-Sep-17 07:29N 58°50' E 005°22'0 0.0
2017-Sep-17 06:59N 58°50' E 005°22'0 0.1
2017-Sep-17 06:29N 58°50' E 005°22'0 0.8
2017-Sep-17 06:01N 58°49' E 005°21'5 9.5
2017-Sep-17 05:30N 58°46' E 005°15'611.6
2017-Sep-17 05:00N 58°41' E 005°09'611.3
2017-Sep-17 04:30N 58°36' E 005°04'611.1
2017-Sep-17 04:00N 58°31' E 004°60'510.9
2017-Sep-17 03:30N 58°26' E 004°55'611.1
2017-Sep-17 03:01N 58°21' E 004°51'611.0
2017-Sep-17 02:30N 58°16' E 004°47'710.7
2017-Sep-17 01:50N 58°09' E 004°41'310.4
2017-Sep-17 01:31N 58°06' E 004°38'313 9.7
2017-Sep-15 17:16N 53°37' W 000°06'413.7
2017-Sep-15 17:00N 53°39' W 000°11'612.3
2017-Sep-15 16:30N 53°44' W 000°16'0 0.5
2017-Sep-15 15:59N 53°45' W 000°16'0 0.2
2017-Sep-15 15:29N 53°45' W 000°16'0 0.4
2017-Sep-15 14:59N 53°44' W 000°16'0 0.0
2017-Sep-15 14:29N 53°44' W 000°16'0 0.0
2017-Sep-15 13:59N 53°44' W 000°16'0 0.0
2017-Sep-15 13:26N 53°44' W 000°16'0 0.0
2017-Sep-15 12:59N 53°44' W 000°16'0 0.0
2017-Sep-15 12:29N 53°44' W 000°16'0 0.0
2017-Sep-15 11:59N 53°44' W 000°16'0 0.0
2017-Sep-15 11:29N 53°44' W 000°16'0 0.0
2017-Sep-15 10:59N 53°44' W 000°16'0 0.0
2017-Sep-15 10:29N 53°44' W 000°16'0 0.0
2017-Sep-15 09:59N 53°44' W 000°16'0 0.0
2017-Sep-15 09:29N 53°44' W 000°16'0 0.0
2017-Sep-15 08:59N 53°44' W 000°16'0 0.0
2017-Sep-15 08:29N 53°44' W 000°16'0 0.0
2017-Sep-15 07:59N 53°44' W 000°16'0 0.0
2017-Sep-15 07:29N 53°44' W 000°16'0 0.0
2017-Sep-15 06:59N 53°44' W 000°16'0 0.0
2017-Sep-15 06:29N 53°44' W 000°16'0 0.0
2017-Sep-15 05:59N 53°44' W 000°16'0 0.0
2017-Sep-15 05:29N 53°44' W 000°16'0 0.0
2017-Sep-15 04:59N 53°44' W 000°16'0 0.0
2017-Sep-15 04:29N 53°44' W 000°16'0 0.0
2017-Sep-15 03:59N 53°44' W 000°16'0 0.0
2017-Sep-15 03:29N 53°44' W 000°16'0 0.0
2017-Sep-15 02:59N 53°44' W 000°16'0 0.0
2017-Sep-15 02:29N 53°44' W 000°16'0 0.0
2017-Sep-15 01:59N 53°44' W 000°16'0 0.0
2017-Sep-15 01:29N 53°44' W 000°16'0 0.0
2017-Sep-15 00:59N 53°44' W 000°16'0 0.0
2017-Sep-15 00:26N 53°44' W 000°16'0 0.0
2017-Sep-14 23:59N 53°44' W 000°16'0 0.0
2017-Sep-14 23:29N 53°44' W 000°16'0 0.0
2017-Sep-14 22:59N 53°44' W 000°16'0 0.0
2017-Sep-14 22:29N 53°44' W 000°16'0 0.0
2017-Sep-14 21:59N 53°44' W 000°16'0 0.0
2017-Sep-14 21:29N 53°44' W 000°16'0 0.0
2017-Sep-14 20:59N 53°44' W 000°16'0 0.0
2017-Sep-14 20:26N 53°44' W 000°16'0 0.0
2017-Sep-14 19:56N 53°44' W 000°16'0 0.1
2017-Sep-14 19:29N 53°44' W 000°16'0 0.7
2017-Sep-14 18:59N 53°45' W 000°16'0 0.0
2017-Sep-14 18:29N 53°45' W 000°16'0 0.0
2017-Sep-14 17:59N 53°45' W 000°16'0 0.0
2017-Sep-14 17:23N 53°45' W 000°16'0 0.0
2017-Sep-14 16:59N 53°45' W 000°16'0 0.0
2017-Sep-14 16:29N 53°45' W 000°16'0 0.0
2017-Sep-14 15:59N 53°45' W 000°16'0 0.0
2017-Sep-14 15:29N 53°45' W 000°16'0 0.0
2017-Sep-14 14:59N 53°45' W 000°16'0 0.0
2017-Sep-14 14:29N 53°45' W 000°16'0 0.0
2017-Sep-14 13:59N 53°45' W 000°16'0 0.0
2017-Sep-14 13:29N 53°45' W 000°16'0 0.0
2017-Sep-14 12:59N 53°45' W 000°16'0 0.0
2017-Sep-14 12:29N 53°45' W 000°16'0 0.0
2017-Sep-14 11:59N 53°45' W 000°16'0 0.0
2017-Sep-14 11:29N 53°45' W 000°16'0 0.0
2017-Sep-14 10:59N 53°45' W 000°16'0 0.0
2017-Sep-14 10:29N 53°45' W 000°16'0 0.0
2017-Sep-14 09:59N 53°45' W 000°16'0 0.0
2017-Sep-14 09:29N 53°45' W 000°16'0 0.0
2017-Sep-14 08:59N 53°45' W 000°16'0 0.0
2017-Sep-14 08:26N 53°45' W 000°16'0 0.0
2017-Sep-14 07:56N 53°45' W 000°16'0 0.0
2017-Sep-14 07:29N 53°45' W 000°16'0 0.0
2017-Sep-14 06:59N 53°45' W 000°16'0 0.0
2017-Sep-14 06:29N 53°45' W 000°16'0 0.0
2017-Sep-14 05:59N 53°45' W 000°16'0 0.0
2017-Sep-14 05:29N 53°45' W 000°16'0 0.0
2017-Sep-14 04:59N 53°45' W 000°16'0 0.0
2017-Sep-14 04:29N 53°45' W 000°16'0 0.0
2017-Sep-14 03:59N 53°45' W 000°16'0 0.0
2017-Sep-14 03:23N 53°45' W 000°16'0 0.0
2017-Sep-14 02:59N 53°45' W 000°16'0 0.0
2017-Sep-14 02:29N 53°45' W 000°16'0 0.0
2017-Sep-14 01:59N 53°45' W 000°16'0 0.0
2017-Sep-14 01:29N 53°45' W 000°16'0 0.0
2017-Sep-14 00:59N 53°45' W 000°16'0 0.0
2017-Sep-14 00:26N 53°45' W 000°16'0 0.0
2017-Sep-13 23:59N 53°45' W 000°16'0 0.0
2017-Sep-13 23:29N 53°45' W 000°16'0 0.0
2017-Sep-13 22:59N 53°45' W 000°16'0 0.0
2017-Sep-13 22:29N 53°45' W 000°16'0 0.0
2017-Sep-13 21:59N 53°45' W 000°16'0 0.0
2017-Sep-13 21:29N 53°45' W 000°16'0 0.0
2017-Sep-13 20:59N 53°45' W 000°16'0 0.0
2017-Sep-13 20:29N 53°45' W 000°16'0 0.0
2017-Sep-13 19:56N 53°45' W 000°16'0 0.0
2017-Sep-13 19:29N 53°45' W 000°16'0 0.0
2017-Sep-13 18:53N 53°45' W 000°16'0 0.0
2017-Sep-13 18:29N 53°45' W 000°16'0 0.0
2017-Sep-13 17:56N 53°45' W 000°16'0 0.0
2017-Sep-13 17:26N 53°45' W 000°16'0 0.0
2017-Sep-13 16:59N 53°45' W 000°16'0 0.0
2017-Sep-13 16:29N 53°45' W 000°16'0 0.0
2017-Sep-13 15:59N 53°45' W 000°16'0 0.0
2017-Sep-13 15:29N 53°45' W 000°16'0 0.0
2017-Sep-13 14:59N 53°45' W 000°16'0 0.0
2017-Sep-13 14:26N 53°45' W 000°16'0 0.0
2017-Sep-13 13:59N 53°45' W 000°16'0 0.0
2017-Sep-13 13:29N 53°45' W 000°16'0 0.0
2017-Sep-13 12:59N 53°45' W 000°16'0 0.0
2017-Sep-13 12:29N 53°45' W 000°16'0 0.0
2017-Sep-13 11:59N 53°45' W 000°16'0 0.0
2017-Sep-13 11:29N 53°45' W 000°16'0 0.0
2017-Sep-13 10:59N 53°45' W 000°16'0 0.0
2017-Sep-13 10:29N 53°45' W 000°16'0 0.0
2017-Sep-13 09:59N 53°45' W 000°16'0 0.0
2017-Sep-13 09:30N 53°45' W 000°16'0 0.4
2017-Sep-13 09:00N 53°44' W 000°16'0 0.3
2017-Sep-13 08:30N 53°44' W 000°17'2 3.4
2017-Sep-13 08:00N 53°43' W 000°15'510.4
2017-Sep-13 07:30N 53°38' W 000°11'510.9
2017-Sep-13 07:00N 53°37' W 000°02'510.3
2017-Sep-13 06:30N 53°34' E 000°05'4 7.3
2017-Sep-13 05:58N 53°33' E 000°12'4 7.1
2017-Sep-13 05:27N 53°34' E 000°18'  

Dump ship's entire track history